SV2BBO-2 Thessaloniki GR current weather conditions

sailwx.info

Wind from 051

Air temperature 20.6° C
Dewpoint 5.0° C

Last reported at 2014-Oct-21 20:37 UTC.
Time now 2014-Oct-21 21:43 UTC

Location: N 40°38' E 022°57'.
View on Google Maps.

See reports from other nearby stations

  
Tides and Currents Weather Stations Pressure Air Temp Water Temp Dewpoint Dewpoint Depression Visibility Wind Speed Wind Dir Waves Ship Positions
date/time (UTC)wind fromknots sea level pressurealtimeterstation pressurevisibilityair tempwater tempwave heightnotes
2014-Oct-21 20:37 051 20.6
2014-Oct-21 20:27 051 20.6
2014-Oct-21 20:17 051 20.6
2014-Oct-21 20:07 049 20.6
2014-Oct-21 19:57 050 20.0
2014-Oct-21 19:47 050 2 gusting 3 20.0
2014-Oct-21 19:37 075 20.6
2014-Oct-21 19:27 077 20.6
2014-Oct-21 19:17 077 20.6
2014-Oct-21 19:07 077 20.6
2014-Oct-21 18:57 077 20.6
2014-Oct-21 18:47 087 20.6
2014-Oct-21 18:37 086 20.6
2014-Oct-21 18:27 086 20.0
2014-Oct-21 18:17 136 20.6
2014-Oct-21 18:07 149 20.6
2014-Oct-21 17:57 162 21.1
2014-Oct-21 17:47 162 20.6
2014-Oct-21 17:37 162 21.1
2014-Oct-21 17:27 162 21.1
2014-Oct-21 17:17 190 2 gusting 3 21.1
2014-Oct-21 17:07 171 0 gusting 3 21.1
2014-Oct-21 16:57 153 2 gusting 3 21.1
2014-Oct-21 16:47 222 2 gusting 3 21.1
2014-Oct-21 16:37 220 3 gusting 4 21.1
2014-Oct-21 16:27 185 1 gusting 3 21.1
2014-Oct-21 16:17 234 0 gusting 3 20.6
2014-Oct-21 16:07 247 3 gusting 5 21.1
2014-Oct-21 15:57 239 3 gusting 5 21.1
2014-Oct-21 15:47 231 2 gusting 4 21.1
2014-Oct-21 15:37 233 21.1
2014-Oct-21 15:27 286 2 gusting 2 21.1
2014-Oct-21 15:17 305 3 gusting 4 21.1
2014-Oct-21 15:07 297 2 gusting 3 21.1
2014-Oct-21 14:57 276 2 gusting 3 20.6
2014-Oct-21 14:37 267 2 gusting 3 20.6
2014-Oct-21 14:27 256 1 gusting 3 21.1
2014-Oct-21 14:17 222 2 gusting 3 21.1
2014-Oct-21 14:07 263 3 gusting 4 21.1
2014-Oct-21 13:57 259 2 gusting 6 21.1
2014-Oct-21 13:37 234 3 gusting 5 21.1
2014-Oct-21 13:27 260 2 gusting 2 21.1
2014-Oct-21 13:17 216 4 gusting 4 21.1
2014-Oct-21 13:07 213 3 gusting 4 21.1
2014-Oct-21 12:57 226 1 gusting 3 21.1
2014-Oct-21 12:47 205 4 gusting 4 21.1
2014-Oct-21 12:37 223 3 gusting 5 20.6
2014-Oct-21 12:27 143 1 gusting 3 21.1
2014-Oct-21 12:17 177 2 gusting 3 20.6
2014-Oct-21 12:07 165 2 gusting 4 20.6
2014-Oct-21 11:57 172 1 gusting 3 20.6
2014-Oct-21 11:47 229 4 gusting 4 20.6
2014-Oct-21 11:37 212 1 gusting 2 20.6
2014-Oct-21 11:27 217 3 gusting 4 20.6
2014-Oct-21 11:17 213 2 gusting 3 20.0
2014-Oct-21 11:07 262 20.0
2014-Oct-21 10:57 294 0 gusting 2 20.0
2014-Oct-21 10:47 211 3 gusting 3 20.0
2014-Oct-21 10:37 232 3 gusting 3 20.0
2014-Oct-21 10:27 230 4 gusting 5 20.0
2014-Oct-21 10:17 206 2 gusting 3 20.0
2014-Oct-21 10:07 206 2 gusting 2 19.4
2014-Oct-21 09:57 262 2 gusting 3 19.4
2014-Oct-21 09:47 204 2 gusting 3 19.4
2014-Oct-21 09:37 206 2 gusting 3 19.4
2014-Oct-21 09:27 205 1 gusting 3 19.4
2014-Oct-21 09:17 197 2 gusting 3 19.4
2014-Oct-21 09:07 183 1 gusting 2 18.9
2014-Oct-21 08:57 252 2 gusting 3 19.4
2014-Oct-21 08:47 220 3 gusting 4 18.9
2014-Oct-21 08:37 242 18.9
2014-Oct-21 08:27 228 2 gusting 4 18.9
2014-Oct-21 08:17 190 3 gusting 4 18.9
2014-Oct-21 08:07 224 2 gusting 5 18.9
2014-Oct-21 07:57 247 2 gusting 2 18.9
2014-Oct-21 07:47 226 2 gusting 3 18.9
2014-Oct-21 07:37 260 2 gusting 4 18.9
2014-Oct-21 07:27 229 2 gusting 3 18.9
2014-Oct-21 07:17 228 18.3
2014-Oct-21 07:07 241 18.3
2014-Oct-21 06:57 233 18.3
2014-Oct-21 06:47 203 0 gusting 3 18.3
2014-Oct-21 06:37 195 2 gusting 2 18.9
2014-Oct-21 06:27 118 18.3
2014-Oct-21 06:17 118 17.8
2014-Oct-21 06:07 086 17.8
2014-Oct-21 05:57 087 17.8
2014-Oct-21 05:47 087 17.2
2014-Oct-21 05:37 087 16.7
2014-Oct-21 05:27 087 16.7
2014-Oct-21 05:17 087 16.7
2014-Oct-21 05:07 087 16.7
2014-Oct-21 04:57 087 16.7
2014-Oct-21 04:47 087 16.7
2014-Oct-21 04:37 087 16.7
2014-Oct-21 04:27 087 16.7
2014-Oct-21 04:17 087 16.7
2014-Oct-21 04:07 087 16.7
2014-Oct-21 03:57 087 16.7
2014-Oct-21 03:47 087 16.7
2014-Oct-21 03:37 087 16.7
2014-Oct-21 03:27 087 16.7
2014-Oct-21 03:17 087 16.7
2014-Oct-21 03:07 087 16.7
2014-Oct-21 02:57 087 16.7
2014-Oct-21 02:47 087 16.7
2014-Oct-21 02:37 086 16.7
2014-Oct-21 02:27 086 16.7
2014-Oct-21 02:17 086 16.7
2014-Oct-21 02:07 086 16.7
2014-Oct-21 01:57 086 16.7
2014-Oct-21 01:47 086 17.2
2014-Oct-21 01:37 086 17.2
2014-Oct-21 01:27 086 17.2
2014-Oct-21 01:17 086 17.2
2014-Oct-21 01:07 088 17.2
2014-Oct-21 00:57 090 17.2
2014-Oct-21 00:47 090 17.2
2014-Oct-21 00:37 090 17.2
2014-Oct-21 00:27 089 17.2
2014-Oct-21 00:17 089 17.2
2014-Oct-21 00:07 090 17.2
2014-Oct-20 23:57 089 17.2
2014-Oct-20 23:47 090 17.8
2014-Oct-20 23:37 089 17.8
2014-Oct-20 23:27 090 17.8
2014-Oct-20 23:17 090 17.8
2014-Oct-20 23:07 089 17.8
2014-Oct-20 22:57 090 17.8
2014-Oct-20 22:47 089 17.8
2014-Oct-20 22:37 089 17.8
2014-Oct-20 22:27 089 17.8
2014-Oct-20 22:17 089 18.3
2014-Oct-20 22:07 090 17.8
2014-Oct-20 21:57 089 18.3
2014-Oct-20 21:47 090 18.3
2014-Oct-20 21:37 090 18.3
2014-Oct-20 21:27 090 18.3
2014-Oct-20 21:17 090 18.3
2014-Oct-20 21:07 090 18.3
2014-Oct-20 20:57 090 18.3
2014-Oct-20 20:47 091 18.3
2014-Oct-20 20:37 091 18.3
2014-Oct-20 20:27 091 18.3
2014-Oct-20 20:17 091 18.3
2014-Oct-20 20:07 091 18.9
2014-Oct-20 19:57 091 18.9
2014-Oct-20 19:47 091 18.9
2014-Oct-20 19:37 091 18.9
2014-Oct-20 19:27 091 18.9
2014-Oct-20 19:17 091 18.9
2014-Oct-20 19:07 091 18.9
2014-Oct-20 18:57 091 18.9
2014-Oct-20 18:47 091 19.4
2014-Oct-20 18:37 091 18.9
2014-Oct-20 18:27 091 18.9
2014-Oct-20 18:17 091 18.9
2014-Oct-20 18:07 091 18.9
2014-Oct-20 17:57 090 19.4
2014-Oct-20 17:47 097 20.0
2014-Oct-20 17:37 101 20.0
2014-Oct-20 17:27 110 20.0
2014-Oct-20 17:17 249 20.0
2014-Oct-20 17:07 249 20.0
2014-Oct-20 16:57 249 20.0
2014-Oct-20 16:47 249 20.0
2014-Oct-20 16:37 249 20.0
2014-Oct-20 16:27 249 20.0
2014-Oct-20 16:17 248 20.6
2014-Oct-20 16:07 248 20.6
2014-Oct-20 15:57 247 1 gusting 2 20.6
2014-Oct-20 15:47 228 0 gusting 3 20.6
2014-Oct-20 15:37 227 1 gusting 3 20.6
2014-Oct-20 15:27 228 1 gusting 3 20.6
2014-Oct-20 15:17 240 1 gusting 3 20.6
2014-Oct-20 15:07 226 1 gusting 2 20.6
2014-Oct-20 14:57 237 2 gusting 3 20.6
2014-Oct-20 14:47 280 2 gusting 4 20.6
2014-Oct-20 14:37 239 2 gusting 4 20.6
2014-Oct-20 14:27 277 2 gusting 3 20.6
2014-Oct-20 14:17 271 2 gusting 4 20.6
2014-Oct-20 14:07 276 2 gusting 4 20.6
2014-Oct-20 13:57 246 2 gusting 5 20.6
2014-Oct-20 13:47 224 3 gusting 6 20.6
2014-Oct-20 13:37 252 3 gusting 6 20.6
2014-Oct-20 13:27 284 3 gusting 4 20.6
2014-Oct-20 13:17 235 3 gusting 5 20.6
2014-Oct-20 13:07 227 3 gusting 4 20.6
2014-Oct-20 12:57 233 2 gusting 3 20.6
2014-Oct-20 12:47 283 3 gusting 3 20.6
2014-Oct-20 12:37 214 2 gusting 4 20.0
2014-Oct-20 12:27 259 2 gusting 4 20.0
2014-Oct-20 12:17 251 4 gusting 4 20.0
2014-Oct-20 12:07 219 5 gusting 6 20.6
2014-Oct-20 11:57 227 3 gusting 5 20.0
2014-Oct-20 11:47 214 4 gusting 5 20.0
2014-Oct-20 11:37 228 3 gusting 6 20.0
2014-Oct-20 11:27 237 4 gusting 5 20.0
2014-Oct-20 11:17 224 4 gusting 5 20.0
2014-Oct-20 11:07 220 4 gusting 5 20.0
2014-Oct-20 10:57 205 3 gusting 5 20.0
2014-Oct-20 10:47 217 3 gusting 5 20.0
2014-Oct-20 10:37 163 3 gusting 4 19.4
2014-Oct-20 10:27 209 4 gusting 4 19.4
2014-Oct-20 10:17 211 3 gusting 5 19.4
2014-Oct-20 10:07 236 2 gusting 4 19.4
2014-Oct-20 09:57 213 2 gusting 3 19.4
2014-Oct-20 09:47 245 2 gusting 3 19.4
2014-Oct-20 09:37 238 3 gusting 3 19.4
2014-Oct-20 09:27 299 1 gusting 2 18.9
2014-Oct-20 09:17 192 2 gusting 3 19.4
2014-Oct-20 09:07 211 0 gusting 3 18.9
2014-Oct-20 08:57 200 3 gusting 3 18.9
2014-Oct-20 08:47 245 1 18.9
2014-Oct-20 08:37 212 0 gusting 4 18.9
2014-Oct-20 08:27 225 1 gusting 2 18.9
2014-Oct-20 08:17 235 3 gusting 3 18.9
2014-Oct-20 08:07 240 2 gusting 5 18.9
2014-Oct-20 07:57 267 19.4
2014-Oct-20 07:47 231 3 gusting 3 19.4
2014-Oct-20 07:37 180 0 gusting 3 18.9
2014-Oct-20 07:27 213 2 gusting 4 18.9
2014-Oct-20 07:17 265 18.9
2014-Oct-20 07:07 273 18.9
2014-Oct-20 06:57 273 18.9
2014-Oct-20 06:47 158 19.4
2014-Oct-20 06:37 084 19.4
2014-Oct-20 06:27 083 18.9
2014-Oct-20 06:17 046 18.9
2014-Oct-20 06:07 046 18.3
2014-Oct-20 05:57 042 18.3
2014-Oct-20 05:47 042 17.8
2014-Oct-20 05:37 042 17.2
2014-Oct-20 05:27 047 17.2
2014-Oct-20 05:17 048 17.2
2014-Oct-20 05:07 041 17.2
2014-Oct-20 04:57 038 17.2
2014-Oct-20 04:47 039 17.2
2014-Oct-20 04:37 038 17.2
2014-Oct-20 04:27 038 17.2
2014-Oct-20 04:17 036 17.2
2014-Oct-20 04:07 036 17.2
2014-Oct-20 03:57 035 17.2
2014-Oct-20 03:47 035 17.2
2014-Oct-20 03:37 032 17.8
2014-Oct-20 03:27 020 17.8
2014-Oct-20 03:17 17.2
2014-Oct-20 03:07 17.8
2014-Oct-20 02:57 336 17.8
2014-Oct-20 02:47 332 17.8
2014-Oct-20 02:37 332 17.8
2014-Oct-20 02:27 332 17.8
2014-Oct-20 02:17 332 17.2
2014-Oct-20 02:07 331 17.8
2014-Oct-20 01:57 332 17.8
2014-Oct-20 01:47 329 17.8
2014-Oct-20 01:37 328 17.8
2014-Oct-20 01:27 235 18.3
2014-Oct-20 01:17 229 18.3
2014-Oct-20 01:07 296 18.3
2014-Oct-20 00:57 080 18.3
2014-Oct-20 00:47 078 18.9
2014-Oct-20 00:37 080 18.3
2014-Oct-20 00:27 080 18.3
2014-Oct-20 00:17 080 18.3
2014-Oct-20 00:07 078 18.9
2014-Oct-19 23:57 076 18.9
2014-Oct-19 23:47 076 18.9
2014-Oct-19 23:37 077 18.9
2014-Oct-19 23:27 077 18.9
2014-Oct-19 23:17 077 18.9
2014-Oct-19 23:07 087 19.4
2014-Oct-19 22:57 065 18.9
2014-Oct-19 22:47 061 18.9
2014-Oct-19 22:37 072 1 gusting 3 18.9
2014-Oct-19 22:27 094 18.9
2014-Oct-19 22:17 114 18.9
2014-Oct-19 22:07 079 18.9
2014-Oct-19 21:57 081 0 gusting 3 18.9
2014-Oct-19 21:47 081 18.9
2014-Oct-19 21:37 080 2 gusting 3 18.9
2014-Oct-19 21:27 098 18.9
2014-Oct-19 21:17 096 2 gusting 3 18.9
2014-Oct-19 21:07 108 18.9